sensor_id;sensor_type;location;lat;lon;timestamp;P1;durP1;ratioP1;P2;durP2;ratioP2
12151;SDS011;6139;51.274;7.128;2024-02-21T00:00:28;15.23;;;8.82;;
12151;SDS011;6139;51.274;7.128;2024-02-21T00:01:29;13.18;;;8.23;;
12151;SDS011;6139;51.274;7.128;2024-02-21T00:02:30;17.08;;;8.80;;
12151;SDS011;6139;51.274;7.128;2024-02-21T00:03:32;18.92;;;8.68;;
12151;SDS011;6139;51.274;7.128;2024-02-21T00:04:33;17.95;;;9.13;;
12151;SDS011;6139;51.274;7.128;2024-02-21T00:05:35;18.92;;;9.40;;
12151;SDS011;6139;51.274;7.128;2024-02-21T00:06:37;16.38;;;8.38;;
12151;SDS011;6139;51.274;7.128;2024-02-21T00:07:39;16.45;;;9.07;;
12151;SDS011;6139;51.274;7.128;2024-02-21T00:08:41;15.27;;;7.80;;
12151;SDS011;6139;51.274;7.128;2024-02-21T00:09:42;17.50;;;9.10;;
12151;SDS011;6139;51.274;7.128;2024-02-21T00:10:43;15.93;;;7.72;;
12151;SDS011;6139;51.274;7.128;2024-02-21T00:11:45;19.85;;;9.52;;
12151;SDS011;6139;51.274;7.128;2024-02-21T00:12:46;17.65;;;8.60;;
12151;SDS011;6139;51.274;7.128;2024-02-21T00:13:48;13.40;;;7.78;;
12151;SDS011;6139;51.274;7.128;2024-02-21T00:14:49;21.33;;;8.98;;
12151;SDS011;6139;51.274;7.128;2024-02-21T00:15:51;19.33;;;8.90;;
12151;SDS011;6139;51.274;7.128;2024-02-21T00:16:52;15.10;;;8.68;;
12151;SDS011;6139;51.274;7.128;2024-02-21T00:17:54;18.23;;;9.45;;
12151;SDS011;6139;51.274;7.128;2024-02-21T00:18:54;18.02;;;9.45;;
12151;SDS011;6139;51.274;7.128;2024-02-21T00:19:56;13.85;;;8.18;;
12151;SDS011;6139;51.274;7.128;2024-02-21T00:20:57;15.35;;;8.00;;
12151;SDS011;6139;51.274;7.128;2024-02-21T00:22:01;16.08;;;8.85;;
12151;SDS011;6139;51.274;7.128;2024-02-21T00:23:05;20.13;;;9.45;;
12151;SDS011;6139;51.274;7.128;2024-02-21T00:24:06;16.67;;;8.90;;
12151;SDS011;6139;51.274;7.128;2024-02-21T00:25:08;15.85;;;8.05;;
12151;SDS011;6139;51.274;7.128;2024-02-21T00:26:09;14.73;;;8.35;;
12151;SDS011;6139;51.274;7.128;2024-02-21T00:27:11;15.80;;;8.27;;
12151;SDS011;6139;51.274;7.128;2024-02-21T00:28:12;12.70;;;8.23;;
12151;SDS011;6139;51.274;7.128;2024-02-21T00:29:14;17.92;;;9.90;;
12151;SDS011;6139;51.274;7.128;2024-02-21T00:30:15;17.95;;;8.43;;
12151;SDS011;6139;51.274;7.128;2024-02-21T00:31:16;17.70;;;8.77;;
12151;SDS011;6139;51.274;7.128;2024-02-21T00:32:18;16.98;;;8.77;;
12151;SDS011;6139;51.274;7.128;2024-02-21T00:33:19;14.48;;;8.43;;
12151;SDS011;6139;51.274;7.128;2024-02-21T00:34:21;17.48;;;8.55;;
12151;SDS011;6139;51.274;7.128;2024-02-21T00:35:22;17.65;;;8.57;;
12151;SDS011;6139;51.274;7.128;2024-02-21T00:36:23;15.05;;;8.48;;
12151;SDS011;6139;51.274;7.128;2024-02-21T00:37:24;16.95;;;8.10;;
12151;SDS011;6139;51.274;7.128;2024-02-21T00:38:28;19.42;;;8.73;;
12151;SDS011;6139;51.274;7.128;2024-02-21T00:39:29;17.88;;;8.73;;
12151;SDS011;6139;51.274;7.128;2024-02-21T00:40:31;15.20;;;8.32;;
12151;SDS011;6139;51.274;7.128;2024-02-21T00:41:32;14.40;;;8.98;;
12151;SDS011;6139;51.274;7.128;2024-02-21T00:42:34;17.27;;;8.60;;
12151;SDS011;6139;51.274;7.128;2024-02-21T00:43:34;14.60;;;7.80;;
12151;SDS011;6139;51.274;7.128;2024-02-21T00:44:36;20.15;;;8.85;;
12151;SDS011;6139;51.274;7.128;2024-02-21T00:45:37;13.35;;;7.57;;
12151;SDS011;6139;51.274;7.128;2024-02-21T00:46:39;16.30;;;7.85;;
12151;SDS011;6139;51.274;7.128;2024-02-21T00:47:40;14.93;;;8.02;;
12151;SDS011;6139;51.274;7.128;2024-02-21T00:48:42;14.07;;;8.60;;
12151;SDS011;6139;51.274;7.128;2024-02-21T00:49:43;15.30;;;8.32;;
12151;SDS011;6139;51.274;7.128;2024-02-21T00:50:45;16.73;;;8.18;;
12151;SDS011;6139;51.274;7.128;2024-02-21T00:51:46;15.70;;;8.18;;
12151;SDS011;6139;51.274;7.128;2024-02-21T00:52:48;17.45;;;8.57;;
12151;SDS011;6139;51.274;7.128;2024-02-21T00:53:50;16.52;;;8.27;;
12151;SDS011;6139;51.274;7.128;2024-02-21T00:54:52;18.20;;;8.02;;
12151;SDS011;6139;51.274;7.128;2024-02-21T00:55:53;14.82;;;7.95;;
12151;SDS011;6139;51.274;7.128;2024-02-21T00:56:57;13.88;;;7.90;;
12151;SDS011;6139;51.274;7.128;2024-02-21T00:57:58;16.38;;;7.88;;
12151;SDS011;6139;51.274;7.128;2024-02-21T00:58:59;15.27;;;8.35;;
12151;SDS011;6139;51.274;7.128;2024-02-21T01:00:01;12.88;;;7.65;;
12151;SDS011;6139;51.274;7.128;2024-02-21T01:01:03;18.75;;;8.45;;
12151;SDS011;6139;51.274;7.128;2024-02-21T01:02:04;16.25;;;8.13;;
12151;SDS011;6139;51.274;7.128;2024-02-21T01:03:06;17.95;;;8.27;;
12151;SDS011;6139;51.274;7.128;2024-02-21T01:04:07;13.93;;;7.82;;
12151;SDS011;6139;51.274;7.128;2024-02-21T01:05:08;16.67;;;7.38;;
12151;SDS011;6139;51.274;7.128;2024-02-21T01:06:09;18.98;;;8.50;;
12151;SDS011;6139;51.274;7.128;2024-02-21T01:07:10;17.90;;;8.00;;
12151;SDS011;6139;51.274;7.128;2024-02-21T01:08:12;16.58;;;8.60;;
12151;SDS011;6139;51.274;7.128;2024-02-21T01:09:15;16.73;;;9.02;;
12151;SDS011;6139;51.274;7.128;2024-02-21T01:10:16;14.85;;;8.18;;
12151;SDS011;6139;51.274;7.128;2024-02-21T01:11:17;15.82;;;8.02;;
12151;SDS011;6139;51.274;7.128;2024-02-21T01:12:19;19.50;;;8.23;;
12151;SDS011;6139;51.274;7.128;2024-02-21T01:13:20;18.38;;;8.52;;
12151;SDS011;6139;51.274;7.128;2024-02-21T01:14:22;16.23;;;8.20;;
12151;SDS011;6139;51.274;7.128;2024-02-21T01:15:23;20.17;;;9.48;;
12151;SDS011;6139;51.274;7.128;2024-02-21T01:16:26;17.13;;;8.38;;
12151;SDS011;6139;51.274;7.128;2024-02-21T01:17:27;17.13;;;8.98;;
12151;SDS011;6139;51.274;7.128;2024-02-21T01:18:27;18.05;;;8.43;;
12151;SDS011;6139;51.274;7.128;2024-02-21T01:19:29;15.45;;;7.78;;
12151;SDS011;6139;51.274;7.128;2024-02-21T01:20:30;19.20;;;8.50;;
12151;SDS011;6139;51.274;7.128;2024-02-21T01:21:32;17.35;;;8.15;;
12151;SDS011;6139;51.274;7.128;2024-02-21T01:22:33;18.52;;;9.32;;
12151;SDS011;6139;51.274;7.128;2024-02-21T01:23:35;15.68;;;8.45;;
12151;SDS011;6139;51.274;7.128;2024-02-21T01:24:38;19.48;;;8.50;;
12151;SDS011;6139;51.274;7.128;2024-02-21T01:25:40;15.90;;;8.32;;
12151;SDS011;6139;51.274;7.128;2024-02-21T01:26:41;15.32;;;8.32;;
12151;SDS011;6139;51.274;7.128;2024-02-21T01:27:43;20.58;;;8.68;;
12151;SDS011;6139;51.274;7.128;2024-02-21T01:28:44;15.13;;;8.90;;
12151;SDS011;6139;51.274;7.128;2024-02-21T01:29:46;18.38;;;8.32;;
12151;SDS011;6139;51.274;7.128;2024-02-21T01:30:49;16.65;;;8.93;;
12151;SDS011;6139;51.274;7.128;2024-02-21T01:31:51;18.85;;;8.85;;
12151;SDS011;6139;51.274;7.128;2024-02-21T01:32:52;21.85;;;9.40;;
12151;SDS011;6139;51.274;7.128;2024-02-21T01:33:54;15.67;;;8.43;;
12151;SDS011;6139;51.274;7.128;2024-02-21T01:34:55;21.42;;;9.20;;
12151;SDS011;6139;51.274;7.128;2024-02-21T01:35:56;16.23;;;8.18;;
12151;SDS011;6139;51.274;7.128;2024-02-21T01:36:58;13.15;;;7.95;;
12151;SDS011;6139;51.274;7.128;2024-02-21T01:37:59;20.75;;;8.70;;
12151;SDS011;6139;51.274;7.128;2024-02-21T01:39:01;12.30;;;7.72;;
12151;SDS011;6139;51.274;7.128;2024-02-21T01:40:04;18.27;;;8.80;;
12151;SDS011;6139;51.274;7.128;2024-02-21T01:41:06;16.85;;;8.90;;
12151;SDS011;6139;51.274;7.128;2024-02-21T01:42:08;13.75;;;7.80;;
12151;SDS011;6139;51.274;7.128;2024-02-21T01:43:15;18.15;;;8.63;;
12151;SDS011;6139;51.274;7.128;2024-02-21T01:44:18;14.00;;;8.05;;
12151;SDS011;6139;51.274;7.128;2024-02-21T01:45:19;19.73;;;8.48;;
12151;SDS011;6139;51.274;7.128;2024-02-21T01:46:21;16.52;;;8.10;;
12151;SDS011;6139;51.274;7.128;2024-02-21T01:47:22;17.25;;;8.40;;
12151;SDS011;6139;51.274;7.128;2024-02-21T01:48:25;19.73;;;9.13;;
12151;SDS011;6139;51.274;7.128;2024-02-21T01:49:25;14.40;;;8.38;;
12151;SDS011;6139;51.274;7.128;2024-02-21T01:50:28;16.45;;;7.55;;
12151;SDS011;6139;51.274;7.128;2024-02-21T01:51:29;18.48;;;8.20;;
12151;SDS011;6139;51.274;7.128;2024-02-21T01:52:32;17.52;;;8.07;;
12151;SDS011;6139;51.274;7.128;2024-02-21T01:53:35;13.60;;;7.95;;
12151;SDS011;6139;51.274;7.128;2024-02-21T01:54:38;16.48;;;8.27;;
12151;SDS011;6139;51.274;7.128;2024-02-21T01:55:41;17.65;;;9.15;;
12151;SDS011;6139;51.274;7.128;2024-02-21T01:56:42;17.00;;;8.10;;
12151;SDS011;6139;51.274;7.128;2024-02-21T01:57:45;14.38;;;8.10;;
12151;SDS011;6139;51.274;7.128;2024-02-21T01:58:48;13.77;;;8.27;;
12151;SDS011;6139;51.274;7.128;2024-02-21T01:59:50;15.23;;;8.35;;
12151;SDS011;6139;51.274;7.128;2024-02-21T02:00:52;13.90;;;8.40;;
12151;SDS011;6139;51.274;7.128;2024-02-21T02:01:56;16.60;;;8.65;;
12151;SDS011;6139;51.274;7.128;2024-02-21T02:02:58;12.45;;;8.50;;
12151;SDS011;6139;51.274;7.128;2024-02-21T02:04:01;16.13;;;8.63;;
12151;SDS011;6139;51.274;7.128;2024-02-21T02:05:03;17.30;;;8.75;;
12151;SDS011;6139;51.274;7.128;2024-02-21T02:06:06;15.40;;;8.30;;
12151;SDS011;6139;51.274;7.128;2024-02-21T02:07:07;15.45;;;8.50;;
12151;SDS011;6139;51.274;7.128;2024-02-21T02:08:08;13.43;;;8.10;;
12151;SDS011;6139;51.274;7.128;2024-02-21T02:09:10;15.88;;;7.90;;
12151;SDS011;6139;51.274;7.128;2024-02-21T02:10:12;15.20;;;8.27;;
12151;SDS011;6139;51.274;7.128;2024-02-21T02:11:15;18.65;;;9.00;;
12151;SDS011;6139;51.274;7.128;2024-02-21T02:12:17;18.42;;;8.35;;
12151;SDS011;6139;51.274;7.128;2024-02-21T02:13:19;15.13;;;8.32;;
12151;SDS011;6139;51.274;7.128;2024-02-21T02:14:20;15.85;;;8.57;;
12151;SDS011;6139;51.274;7.128;2024-02-21T02:15:22;17.60;;;8.40;;
12151;SDS011;6139;51.274;7.128;2024-02-21T02:16:22;14.98;;;8.48;;
12151;SDS011;6139;51.274;7.128;2024-02-21T02:17:23;13.88;;;7.82;;
12151;SDS011;6139;51.274;7.128;2024-02-21T02:18:26;18.92;;;8.43;;
12151;SDS011;6139;51.274;7.128;2024-02-21T02:19:26;17.10;;;8.77;;
12151;SDS011;6139;51.274;7.128;2024-02-21T02:20:28;15.50;;;8.38;;
12151;SDS011;6139;51.274;7.128;2024-02-21T02:21:30;18.35;;;8.63;;
12151;SDS011;6139;51.274;7.128;2024-02-21T02:22:35;17.63;;;8.30;;
12151;SDS011;6139;51.274;7.128;2024-02-21T02:23:40;11.75;;;7.90;;
12151;SDS011;6139;51.274;7.128;2024-02-21T02:24:43;16.15;;;8.05;;
12151;SDS011;6139;51.274;7.128;2024-02-21T02:25:44;19.50;;;9.00;;
12151;SDS011;6139;51.274;7.128;2024-02-21T02:26:49;17.38;;;8.68;;
12151;SDS011;6139;51.274;7.128;2024-02-21T02:27:51;17.88;;;8.10;;
12151;SDS011;6139;51.274;7.128;2024-02-21T02:28:52;17.35;;;8.52;;
12151;SDS011;6139;51.274;7.128;2024-02-21T02:29:54;20.73;;;9.13;;
12151;SDS011;6139;51.274;7.128;2024-02-21T02:30:55;17.88;;;8.15;;
12151;SDS011;6139;51.274;7.128;2024-02-21T02:31:57;15.50;;;8.20;;
12151;SDS011;6139;51.274;7.128;2024-02-21T02:32:58;19.23;;;8.55;;
12151;SDS011;6139;51.274;7.128;2024-02-21T02:34:00;18.08;;;8.90;;
12151;SDS011;6139;51.274;7.128;2024-02-21T02:35:01;15.80;;;7.87;;
12151;SDS011;6139;51.274;7.128;2024-02-21T02:36:03;14.97;;;7.87;;
12151;SDS011;6139;51.274;7.128;2024-02-21T02:37:05;16.10;;;8.35;;
12151;SDS011;6139;51.274;7.128;2024-02-21T02:38:07;18.48;;;8.45;;
12151;SDS011;6139;51.274;7.128;2024-02-21T02:39:09;16.33;;;8.33;;
12151;SDS011;6139;51.274;7.128;2024-02-21T02:40:11;12.95;;;7.65;;
12151;SDS011;6139;51.274;7.128;2024-02-21T02:41:12;16.30;;;8.43;;
12151;SDS011;6139;51.274;7.128;2024-02-21T02:42:14;14.52;;;8.07;;
12151;SDS011;6139;51.274;7.128;2024-02-21T02:43:15;16.40;;;8.63;;
12151;SDS011;6139;51.274;7.128;2024-02-21T02:44:17;14.63;;;8.38;;
12151;SDS011;6139;51.274;7.128;2024-02-21T02:45:18;18.55;;;8.20;;
12151;SDS011;6139;51.274;7.128;2024-02-21T02:46:20;14.20;;;7.85;;
12151;SDS011;6139;51.274;7.128;2024-02-21T02:47:21;15.70;;;7.95;;
12151;SDS011;6139;51.274;7.128;2024-02-21T02:48:22;19.85;;;8.23;;
12151;SDS011;6139;51.274;7.128;2024-02-21T02:49:24;17.20;;;8.75;;
12151;SDS011;6139;51.274;7.128;2024-02-21T02:50:25;16.25;;;8.00;;
12151;SDS011;6139;51.274;7.128;2024-02-21T02:51:28;14.88;;;7.28;;
12151;SDS011;6139;51.274;7.128;2024-02-21T02:52:29;14.93;;;8.13;;
12151;SDS011;6139;51.274;7.128;2024-02-21T02:53:31;14.23;;;8.18;;
12151;SDS011;6139;51.274;7.128;2024-02-21T02:54:33;15.35;;;8.02;;
12151;SDS011;6139;51.274;7.128;2024-02-21T02:55:35;14.57;;;7.85;;
12151;SDS011;6139;51.274;7.128;2024-02-21T02:56:36;13.27;;;7.63;;
12151;SDS011;6139;51.274;7.128;2024-02-21T02:57:38;17.55;;;7.65;;
12151;SDS011;6139;51.274;7.128;2024-02-21T02:58:39;14.85;;;8.20;;
12151;SDS011;6139;51.274;7.128;2024-02-21T02:59:40;16.48;;;8.02;;
12151;SDS011;6139;51.274;7.128;2024-02-21T03:00:41;16.45;;;7.35;;
12151;SDS011;6139;51.274;7.128;2024-02-21T03:01:42;19.52;;;8.85;;
12151;SDS011;6139;51.274;7.128;2024-02-21T03:02:45;13.27;;;7.88;;
12151;SDS011;6139;51.274;7.128;2024-02-21T03:03:46;14.18;;;8.35;;
12151;SDS011;6139;51.274;7.128;2024-02-21T03:04:48;10.90;;;7.68;;
12151;SDS011;6139;51.274;7.128;2024-02-21T03:05:49;17.55;;;7.50;;
12151;SDS011;6139;51.274;7.128;2024-02-21T03:06:51;15.40;;;7.68;;
12151;SDS011;6139;51.274;7.128;2024-02-21T03:07:52;14.65;;;8.07;;
12151;SDS011;6139;51.274;7.128;2024-02-21T03:08:54;16.08;;;8.13;;
12151;SDS011;6139;51.274;7.128;2024-02-21T03:09:56;16.67;;;7.85;;
12151;SDS011;6139;51.274;7.128;2024-02-21T03:10:57;16.97;;;7.83;;
12151;SDS011;6139;51.274;7.128;2024-02-21T03:11:59;13.73;;;7.45;;
12151;SDS011;6139;51.274;7.128;2024-02-21T03:13:03;14.18;;;7.20;;
12151;SDS011;6139;51.274;7.128;2024-02-21T03:14:05;14.77;;;7.40;;
12151;SDS011;6139;51.274;7.128;2024-02-21T03:15:06;15.30;;;7.55;;
12151;SDS011;6139;51.274;7.128;2024-02-21T03:16:08;14.50;;;7.90;;
12151;SDS011;6139;51.274;7.128;2024-02-21T03:17:09;16.50;;;7.63;;
12151;SDS011;6139;51.274;7.128;2024-02-21T03:18:11;17.20;;;8.40;;
12151;SDS011;6139;51.274;7.128;2024-02-21T03:19:12;15.70;;;7.32;;
12151;SDS011;6139;51.274;7.128;2024-02-21T03:20:14;15.73;;;7.65;;
12151;SDS011;6139;51.274;7.128;2024-02-21T03:21:15;15.18;;;7.75;;
12151;SDS011;6139;51.274;7.128;2024-02-21T03:22:17;17.52;;;7.95;;
12151;SDS011;6139;51.274;7.128;2024-02-21T03:23:18;15.10;;;7.70;;
12151;SDS011;6139;51.274;7.128;2024-02-21T03:24:20;14.88;;;7.70;;
12151;SDS011;6139;51.274;7.128;2024-02-21T03:25:22;16.13;;;7.88;;
12151;SDS011;6139;51.274;7.128;2024-02-21T03:26:24;13.07;;;7.35;;
12151;SDS011;6139;51.274;7.128;2024-02-21T03:27:25;14.00;;;7.78;;
12151;SDS011;6139;51.274;7.128;2024-02-21T03:28:26;14.50;;;7.53;;
12151;SDS011;6139;51.274;7.128;2024-02-21T03:29:28;13.40;;;7.30;;
12151;SDS011;6139;51.274;7.128;2024-02-21T03:30:29;13.30;;;8.25;;
12151;SDS011;6139;51.274;7.128;2024-02-21T03:31:31;13.27;;;7.22;;
12151;SDS011;6139;51.274;7.128;2024-02-21T03:32:32;15.35;;;7.00;;
12151;SDS011;6139;51.274;7.128;2024-02-21T03:33:33;14.95;;;7.10;;
12151;SDS011;6139;51.274;7.128;2024-02-21T03:34:34;13.32;;;7.35;;
12151;SDS011;6139;51.274;7.128;2024-02-21T03:35:36;13.88;;;7.53;;
12151;SDS011;6139;51.274;7.128;2024-02-21T03:36:37;14.10;;;7.03;;
12151;SDS011;6139;51.274;7.128;2024-02-21T03:37:39;16.92;;;7.55;;
12151;SDS011;6139;51.274;7.128;2024-02-21T03:38:40;11.68;;;6.47;;
12151;SDS011;6139;51.274;7.128;2024-02-21T03:39:42;14.82;;;7.03;;
12151;SDS011;6139;51.274;7.128;2024-02-21T03:40:44;14.25;;;7.97;;
12151;SDS011;6139;51.274;7.128;2024-02-21T03:41:46;17.90;;;7.50;;
12151;SDS011;6139;51.274;7.128;2024-02-21T03:42:47;13.52;;;7.18;;
12151;SDS011;6139;51.274;7.128;2024-02-21T03:43:49;15.00;;;7.32;;
12151;SDS011;6139;51.274;7.128;2024-02-21T03:44:50;13.88;;;6.95;;
12151;SDS011;6139;51.274;7.128;2024-02-21T03:45:52;13.60;;;7.72;;
12151;SDS011;6139;51.274;7.128;2024-02-21T03:46:53;17.83;;;7.40;;
12151;SDS011;6139;51.274;7.128;2024-02-21T03:47:55;17.63;;;7.32;;
12151;SDS011;6139;51.274;7.128;2024-02-21T03:48:56;14.48;;;7.20;;
12151;SDS011;6139;51.274;7.128;2024-02-21T03:49:58;14.07;;;7.03;;
12151;SDS011;6139;51.274;7.128;2024-02-21T03:51:00;12.85;;;6.65;;
12151;SDS011;6139;51.274;7.128;2024-02-21T03:52:02;18.00;;;7.57;;
12151;SDS011;6139;51.274;7.128;2024-02-21T03:53:03;15.13;;;7.32;;
12151;SDS011;6139;51.274;7.128;2024-02-21T03:54:05;11.73;;;7.32;;
12151;SDS011;6139;51.274;7.128;2024-02-21T03:55:06;11.38;;;7.25;;
12151;SDS011;6139;51.274;7.128;2024-02-21T03:56:10;13.68;;;7.30;;
12151;SDS011;6139;51.274;7.128;2024-02-21T03:57:11;14.18;;;7.18;;
12151;SDS011;6139;51.274;7.128;2024-02-21T03:58:13;14.35;;;7.53;;
12151;SDS011;6139;51.274;7.128;2024-02-21T03:59:14;11.77;;;7.10;;
12151;SDS011;6139;51.274;7.128;2024-02-21T04:00:16;14.75;;;6.95;;
12151;SDS011;6139;51.274;7.128;2024-02-21T04:01:18;17.30;;;7.05;;
12151;SDS011;6139;51.274;7.128;2024-02-21T04:02:20;12.68;;;7.35;;
12151;SDS011;6139;51.274;7.128;2024-02-21T04:03:20;12.18;;;7.00;;
12151;SDS011;6139;51.274;7.128;2024-02-21T04:04:22;14.30;;;7.25;;
12151;SDS011;6139;51.274;7.128;2024-02-21T04:05:23;17.70;;;6.55;;
12151;SDS011;6139;51.274;7.128;2024-02-21T04:06:25;13.85;;;7.43;;
12151;SDS011;6139;51.274;7.128;2024-02-21T04:07:26;13.85;;;7.00;;
12151;SDS011;6139;51.274;7.128;2024-02-21T04:08:28;13.77;;;6.93;;
12151;SDS011;6139;51.274;7.128;2024-02-21T04:09:29;13.10;;;7.07;;
12151;SDS011;6139;51.274;7.128;2024-02-21T04:10:31;11.27;;;6.57;;
12151;SDS011;6139;51.274;7.128;2024-02-21T04:11:34;13.18;;;6.93;;
12151;SDS011;6139;51.274;7.128;2024-02-21T04:12:34;13.35;;;7.10;;
12151;SDS011;6139;51.274;7.128;2024-02-21T04:13:38;12.40;;;6.95;;
12151;SDS011;6139;51.274;7.128;2024-02-21T04:14:39;17.23;;;7.18;;
12151;SDS011;6139;51.274;7.128;2024-02-21T04:15:41;14.93;;;7.15;;
12151;SDS011;6139;51.274;7.128;2024-02-21T04:16:42;13.55;;;6.93;;
12151;SDS011;6139;51.274;7.128;2024-02-21T04:17:44;13.68;;;6.85;;
12151;SDS011;6139;51.274;7.128;2024-02-21T04:18:45;11.95;;;6.82;;
12151;SDS011;6139;51.274;7.128;2024-02-21T04:19:46;11.38;;;6.80;;
12151;SDS011;6139;51.274;7.128;2024-02-21T04:20:48;14.48;;;6.90;;
12151;SDS011;6139;51.274;7.128;2024-02-21T04:21:49;11.77;;;6.25;;
12151;SDS011;6139;51.274;7.128;2024-02-21T04:22:50;14.88;;;6.93;;
12151;SDS011;6139;51.274;7.128;2024-02-21T04:23:51;16.45;;;6.70;;
12151;SDS011;6139;51.274;7.128;2024-02-21T04:24:53;11.93;;;6.30;;
12151;SDS011;6139;51.274;7.128;2024-02-21T04:25:54;14.60;;;6.93;;
12151;SDS011;6139;51.274;7.128;2024-02-21T04:26:56;15.48;;;7.55;;
12151;SDS011;6139;51.274;7.128;2024-02-21T04:27:58;10.93;;;6.18;;
12151;SDS011;6139;51.274;7.128;2024-02-21T04:29:00;12.18;;;6.35;;
12151;SDS011;6139;51.274;7.128;2024-02-21T04:30:02;15.32;;;6.90;;
12151;SDS011;6139;51.274;7.128;2024-02-21T04:31:03;12.20;;;6.40;;
12151;SDS011;6139;51.274;7.128;2024-02-21T04:32:06;13.02;;;6.57;;
12151;SDS011;6139;51.274;7.128;2024-02-21T04:33:07;15.20;;;7.22;;
12151;SDS011;6139;51.274;7.128;2024-02-21T04:34:08;11.52;;;6.47;;
12151;SDS011;6139;51.274;7.128;2024-02-21T04:35:09;12.57;;;5.88;;
12151;SDS011;6139;51.274;7.128;2024-02-21T04:36:11;13.80;;;6.35;;
12151;SDS011;6139;51.274;7.128;2024-02-21T04:37:13;12.23;;;6.00;;
12151;SDS011;6139;51.274;7.128;2024-02-21T04:38:14;13.68;;;6.72;;
12151;SDS011;6139;51.274;7.128;2024-02-21T04:39:16;10.63;;;6.60;;
12151;SDS011;6139;51.274;7.128;2024-02-21T04:40:17;14.18;;;6.60;;
12151;SDS011;6139;51.274;7.128;2024-02-21T04:41:19;12.63;;;5.90;;
12151;SDS011;6139;51.274;7.128;2024-02-21T04:42:22;13.48;;;6.35;;
12151;SDS011;6139;51.274;7.128;2024-02-21T04:43:24;13.32;;;6.60;;
12151;SDS011;6139;51.274;7.128;2024-02-21T04:44:25;11.45;;;6.55;;
12151;SDS011;6139;51.274;7.128;2024-02-21T04:45:27;16.02;;;6.80;;
12151;SDS011;6139;51.274;7.128;2024-02-21T04:46:27;11.07;;;6.50;;
12151;SDS011;6139;51.274;7.128;2024-02-21T04:47:29;14.02;;;6.78;;
12151;SDS011;6139;51.274;7.128;2024-02-21T04:48:30;10.68;;;5.28;;
12151;SDS011;6139;51.274;7.128;2024-02-21T04:49:32;14.73;;;6.28;;
12151;SDS011;6139;51.274;7.128;2024-02-21T04:50:33;13.02;;;6.03;;
12151;SDS011;6139;51.274;7.128;2024-02-21T04:51:35;11.85;;;5.88;;
12151;SDS011;6139;51.274;7.128;2024-02-21T04:52:36;12.25;;;6.57;;
12151;SDS011;6139;51.274;7.128;2024-02-21T04:53:37;13.70;;;6.05;;
12151;SDS011;6139;51.274;7.128;2024-02-21T04:54:39;10.00;;;5.85;;
12151;SDS011;6139;51.274;7.128;2024-02-21T04:55:40;10.82;;;5.60;;
12151;SDS011;6139;51.274;7.128;2024-02-21T04:56:42;11.23;;;6.13;;
12151;SDS011;6139;51.274;7.128;2024-02-21T04:57:44;12.73;;;6.38;;
12151;SDS011;6139;51.274;7.128;2024-02-21T04:58:46;12.52;;;6.53;;
12151;SDS011;6139;51.274;7.128;2024-02-21T04:59:47;11.18;;;6.25;;
12151;SDS011;6139;51.274;7.128;2024-02-21T05:00:49;13.95;;;6.15;;
12151;SDS011;6139;51.274;7.128;2024-02-21T05:01:50;14.85;;;5.85;;
12151;SDS011;6139;51.274;7.128;2024-02-21T05:02:52;10.68;;;5.75;;
12151;SDS011;6139;51.274;7.128;2024-02-21T05:03:53;10.35;;;5.47;;
12151;SDS011;6139;51.274;7.128;2024-02-21T05:04:54;10.25;;;6.95;;
12151;SDS011;6139;51.274;7.128;2024-02-21T05:05:55;8.25;;;5.20;;
12151;SDS011;6139;51.274;7.128;2024-02-21T05:06:57;11.38;;;6.15;;
12151;SDS011;6139;51.274;7.128;2024-02-21T05:08:00;11.55;;;6.22;;
12151;SDS011;6139;51.274;7.128;2024-02-21T05:09:01;14.38;;;6.03;;
12151;SDS011;6139;51.274;7.128;2024-02-21T05:10:03;13.07;;;5.68;;
12151;SDS011;6139;51.274;7.128;2024-02-21T05:11:05;11.52;;;5.97;;
12151;SDS011;6139;51.274;7.128;2024-02-21T05:12:07;10.70;;;5.68;;
12151;SDS011;6139;51.274;7.128;2024-02-21T05:13:10;12.80;;;6.40;;
12151;SDS011;6139;51.274;7.128;2024-02-21T05:14:11;10.88;;;6.15;;
12151;SDS011;6139;51.274;7.128;2024-02-21T05:15:12;14.10;;;5.60;;
12151;SDS011;6139;51.274;7.128;2024-02-21T05:16:14;10.60;;;5.97;;
12151;SDS011;6139;51.274;7.128;2024-02-21T05:17:16;11.02;;;6.15;;
12151;SDS011;6139;51.274;7.128;2024-02-21T05:18:18;9.75;;;5.10;;
12151;SDS011;6139;51.274;7.128;2024-02-21T05:19:20;10.15;;;5.28;;
12151;SDS011;6139;51.274;7.128;2024-02-21T05:20:22;13.02;;;5.95;;
12151;SDS011;6139;51.274;7.128;2024-02-21T05:21:23;9.23;;;5.32;;
12151;SDS011;6139;51.274;7.128;2024-02-21T05:22:25;7.53;;;5.28;;
12151;SDS011;6139;51.274;7.128;2024-02-21T05:23:26;12.13;;;5.72;;
12151;SDS011;6139;51.274;7.128;2024-02-21T05:24:28;11.75;;;5.70;;
12151;SDS011;6139;51.274;7.128;2024-02-21T05:25:30;13.55;;;6.13;;
12151;SDS011;6139;51.274;7.128;2024-02-21T05:26:31;11.07;;;5.47;;
12151;SDS011;6139;51.274;7.128;2024-02-21T05:27:32;12.32;;;5.70;;
12151;SDS011;6139;51.274;7.128;2024-02-21T05:28:37;9.80;;;6.22;;
12151;SDS011;6139;51.274;7.128;2024-02-21T05:29:38;10.40;;;5.43;;
12151;SDS011;6139;51.274;7.128;2024-02-21T05:30:40;10.98;;;5.90;;
12151;SDS011;6139;51.274;7.128;2024-02-21T05:31:54;11.10;;;5.85;;
12151;SDS011;6139;51.274;7.128;2024-02-21T05:32:57;12.27;;;5.85;;
12151;SDS011;6139;51.274;7.128;2024-02-21T05:33:58;10.98;;;5.82;;
12151;SDS011;6139;51.274;7.128;2024-02-21T05:35:04;11.85;;;6.15;;
12151;SDS011;6139;51.274;7.128;2024-02-21T05:36:06;13.00;;;6.05;;
12151;SDS011;6139;51.274;7.128;2024-02-21T05:37:08;14.18;;;5.65;;
12151;SDS011;6139;51.274;7.128;2024-02-21T05:38:09;9.43;;;5.60;;
12151;SDS011;6139;51.274;7.128;2024-02-21T05:39:12;14.05;;;5.65;;
12151;SDS011;6139;51.274;7.128;2024-02-21T05:40:13;9.95;;;5.88;;
12151;SDS011;6139;51.274;7.128;2024-02-21T05:41:15;11.82;;;5.63;;
12151;SDS011;6139;51.274;7.128;2024-02-21T05:42:16;11.15;;;5.53;;
12151;SDS011;6139;51.274;7.128;2024-02-21T05:43:18;10.98;;;5.78;;
12151;SDS011;6139;51.274;7.128;2024-02-21T05:44:20;9.82;;;5.70;;
12151;SDS011;6139;51.274;7.128;2024-02-21T05:45:22;12.75;;;5.70;;
12151;SDS011;6139;51.274;7.128;2024-02-21T05:46:23;12.25;;;5.43;;
12151;SDS011;6139;51.274;7.128;2024-02-21T05:47:24;11.30;;;5.90;;
12151;SDS011;6139;51.274;7.128;2024-02-21T05:48:26;11.00;;;5.45;;
12151;SDS011;6139;51.274;7.128;2024-02-21T05:49:27;9.90;;;5.85;;
12151;SDS011;6139;51.274;7.128;2024-02-21T05:50:29;12.43;;;5.90;;
12151;SDS011;6139;51.274;7.128;2024-02-21T05:51:32;10.07;;;5.00;;
12151;SDS011;6139;51.274;7.128;2024-02-21T05:52:34;10.15;;;5.53;;
12151;SDS011;6139;51.274;7.128;2024-02-21T05:53:35;10.45;;;5.15;;
12151;SDS011;6139;51.274;7.128;2024-02-21T05:54:40;8.98;;;5.75;;
12151;SDS011;6139;51.274;7.128;2024-02-21T05:55:41;11.38;;;5.15;;
12151;SDS011;6139;51.274;7.128;2024-02-21T05:56:44;11.30;;;5.75;;
12151;SDS011;6139;51.274;7.128;2024-02-21T05:57:46;9.77;;;5.55;;
12151;SDS011;6139;51.274;7.128;2024-02-21T05:58:48;10.20;;;5.20;;
12151;SDS011;6139;51.274;7.128;2024-02-21T05:59:50;10.68;;;5.50;;
12151;SDS011;6139;51.274;7.128;2024-02-21T06:00:52;8.75;;;5.50;;
12151;SDS011;6139;51.274;7.128;2024-02-21T06:01:57;11.73;;;5.28;;
12151;SDS011;6139;51.274;7.128;2024-02-21T06:02:59;13.88;;;5.85;;
12151;SDS011;6139;51.274;7.128;2024-02-21T06:04:00;9.75;;;5.70;;
12151;SDS011;6139;51.274;7.128;2024-02-21T06:05:02;12.02;;;5.35;;
12151;SDS011;6139;51.274;7.128;2024-02-21T06:06:07;12.38;;;6.30;;
12151;SDS011;6139;51.274;7.128;2024-02-21T06:07:09;7.15;;;5.35;;
12151;SDS011;6139;51.274;7.128;2024-02-21T06:08:10;11.05;;;5.15;;
12151;SDS011;6139;51.274;7.128;2024-02-21T06:09:12;12.55;;;5.78;;
12151;SDS011;6139;51.274;7.128;2024-02-21T06:10:13;12.70;;;5.57;;
12151;SDS011;6139;51.274;7.128;2024-02-21T06:11:15;11.63;;;6.00;;
12151;SDS011;6139;51.274;7.128;2024-02-21T06:12:16;8.38;;;5.32;;